createdAt,value
2022-12-17T00:01:24.678Z,5.50
2022-12-17T00:04:11.987Z,8.00
2022-12-17T00:06:58.500Z,9.35
2022-12-17T00:09:50.103Z,6.60
2022-12-17T00:12:34.093Z,7.95
2022-12-17T00:15:20.726Z,6.37
2022-12-17T00:18:10.664Z,8.70
2022-12-17T00:20:57.743Z,7.58
2022-12-17T00:23:45.267Z,5.90
2022-12-17T00:26:40.492Z,7.25
2022-12-17T00:29:28.521Z,5.72
2022-12-17T00:32:16.994Z,7.50
2022-12-17T00:35:03.247Z,9.78
2022-12-17T00:50:41.010Z,5.92
2022-12-17T00:53:27.421Z,7.00
2022-12-17T00:56:13.873Z,9.10
2022-12-17T00:59:02.582Z,7.78
2022-12-17T01:01:48.267Z,8.13
2022-12-17T01:07:19.917Z,10.48
2022-12-17T01:10:06.934Z,9.20
2022-12-17T01:12:53.599Z,8.95
2022-12-17T01:15:41.615Z,9.65
2022-12-17T01:18:27.987Z,8.73
2022-12-17T01:21:15.442Z,9.38
2022-12-17T01:24:01.337Z,8.68
2022-12-17T01:26:47.300Z,7.92
2022-12-17T01:32:18.430Z,7.62
2022-12-17T01:35:04.321Z,7.10
2022-12-17T01:40:35.526Z,4.60
2022-12-17T01:43:23.206Z,4.80
2022-12-17T01:46:09.843Z,3.25
2022-12-17T01:49:00.149Z,4.67
2022-12-17T01:51:48.135Z,7.12
2022-12-17T01:54:35.377Z,5.33
2022-12-17T01:57:24.352Z,4.30
2022-12-17T02:00:21.475Z,3.42
2022-12-17T02:03:07.579Z,2.47
2022-12-17T02:06:14.235Z,3.05
2022-12-17T02:09:47.669Z,3.60
2022-12-17T02:12:56.732Z,2.83
2022-12-17T02:15:54.171Z,3.50
2022-12-17T02:18:47.393Z,2.90
2022-12-17T02:21:33.237Z,4.05
2022-12-17T02:24:59.801Z,3.25
2022-12-17T02:27:48.829Z,5.87
2022-12-17T02:30:37.334Z,5.30
2022-12-17T02:33:25.309Z,3.22
2022-12-17T02:43:07.539Z,6.55
2022-12-17T02:45:55.444Z,6.62
2022-12-17T02:48:43.008Z,8.43
2022-12-17T02:51:29.991Z,7.45
2022-12-17T02:54:22.382Z,8.05
2022-12-17T02:57:12.027Z,4.53
2022-12-17T02:59:57.887Z,3.80
2022-12-17T03:02:44.032Z,2.35
2022-12-17T03:05:47.547Z,2.40
2022-12-17T03:08:19.743Z,3.12
2022-12-17T03:11:05.879Z,1.75
2022-12-17T03:13:52.099Z,2.50
2022-12-17T03:16:38.424Z,3.33
2022-12-17T03:19:24.444Z,2.65
2022-12-17T03:22:10.573Z,3.83
2022-12-17T03:24:56.470Z,3.33
2022-12-17T03:27:43.765Z,3.52
2022-12-17T03:30:34.553Z,2.95
2022-12-17T03:33:18.032Z,4.62
2022-12-17T03:36:04.126Z,7.50
2022-12-17T03:38:49.744Z,4.62
2022-12-17T03:44:21.286Z,4.53
2022-12-17T03:47:07.272Z,3.67
2022-12-17T03:49:52.854Z,5.22
2022-12-17T03:52:38.568Z,4.75
2022-12-17T03:58:01.902Z,8.80
2022-12-17T04:07:51.724Z,5.80
2022-12-17T04:10:47.409Z,6.42
2022-12-17T04:13:38.790Z,7.65
2022-12-17T04:16:45.164Z,6.40
2022-12-17T04:19:31.511Z,6.72
2022-12-17T04:22:17.677Z,7.28
2022-12-17T04:25:04.454Z,7.78
2022-12-17T04:27:52.097Z,7.30
2022-12-17T04:30:38.791Z,7.05
2022-12-17T04:33:35.135Z,7.20
2022-12-17T04:36:26.354Z,8.93
2022-12-17T04:39:12.576Z,10.65
2022-12-17T04:42:07.888Z,9.88
2022-12-17T04:44:54.393Z,13.95
2022-12-17T04:47:41.211Z,15.48
2022-12-17T04:50:27.222Z,13.13
2022-12-17T04:53:27.135Z,9.03
2022-12-17T04:56:15.562Z,8.23
2022-12-17T04:59:01.576Z,10.05
2022-12-17T05:01:47.527Z,7.17
2022-12-17T05:07:19.120Z,9.65
2022-12-17T05:10:05.098Z,10.68
2022-12-17T05:12:50.781Z,12.45
2022-12-17T05:18:09.637Z,8.73
2022-12-17T05:20:56.278Z,6.70
2022-12-17T05:23:41.933Z,6.35
2022-12-17T05:26:46.263Z,8.95
2022-12-17T05:29:56.967Z,8.60
2022-12-17T05:32:43.115Z,8.35
2022-12-17T05:35:29.339Z,13.60
2022-12-17T05:38:26.871Z,24.20
2022-12-17T05:41:17.712Z,29.40
2022-12-17T05:44:21.446Z,27.98
2022-12-17T05:46:53.864Z,17.70
2022-12-17T05:49:40.453Z,14.83
2022-12-17T05:52:44.545Z,29.37
2022-12-17T05:55:31.120Z,13.50
2022-12-17T05:58:27.550Z,7.95
2022-12-17T06:01:19.460Z,7.00
2022-12-17T06:04:05.799Z,10.28
2022-12-17T06:06:52.493Z,9.98
2022-12-17T06:09:40.342Z,10.63
2022-12-17T06:12:26.895Z,11.85
2022-12-17T06:15:12.893Z,12.53
2022-12-17T06:17:58.867Z,13.00
2022-12-17T06:20:44.746Z,13.53
2022-12-17T06:26:16.633Z,35.95
2022-12-17T06:29:04.488Z,34.88
2022-12-17T06:31:50.643Z,42.23
2022-12-17T06:34:37.340Z,42.80
2022-12-17T06:37:24.020Z,42.03
2022-12-17T06:40:12.207Z,43.35
2022-12-17T06:42:58.261Z,33.08
2022-12-17T06:45:44.247Z,31.65
2022-12-17T06:48:30.499Z,31.27
2022-12-17T06:51:16.547Z,27.73
2022-12-17T06:54:02.332Z,27.32
2022-12-17T06:56:48.642Z,30.08
2022-12-17T06:59:34.502Z,27.45
2022-12-17T07:05:07.111Z,36.28
2022-12-17T07:07:54.271Z,37.33
2022-12-17T07:10:41.639Z,48.45
2022-12-17T07:13:28.382Z,40.40
2022-12-17T07:16:14.501Z,50.95
2022-12-17T07:21:46.261Z,52.27
2022-12-17T07:24:32.514Z,55.48
2022-12-17T07:27:17.955Z,61.60
2022-12-17T07:30:11.283Z,56.02
2022-12-17T07:32:57.705Z,49.23
2022-12-17T07:35:43.804Z,67.80
2022-12-17T07:38:30.029Z,84.20
2022-12-17T07:41:17.796Z,114.85
2022-12-17T07:44:03.880Z,111.15
2022-12-17T07:46:49.671Z,88.10
2022-12-17T07:49:37.055Z,175.93
2022-12-17T07:52:23.455Z,181.87
2022-12-17T07:55:14.199Z,84.00
2022-12-17T07:57:58.123Z,55.10
2022-12-17T08:00:49.144Z,66.40
2022-12-17T08:03:32.433Z,69.65
2022-12-17T08:06:19.463Z,81.87
2022-12-17T08:09:05.452Z,66.37
2022-12-17T08:11:51.121Z,77.53
2022-12-17T08:17:24.707Z,41.55
2022-12-17T08:20:10.760Z,41.42
2022-12-17T08:22:57.366Z,32.80
2022-12-17T08:25:43.337Z,38.20
2022-12-17T08:31:18.703Z,30.55
2022-12-17T08:34:07.989Z,23.95
2022-12-17T08:36:54.810Z,26.87
2022-12-17T08:39:40.596Z,13.22
2022-12-17T08:45:12.319Z,16.32
2022-12-17T08:48:03.656Z,31.85
2022-12-17T08:50:46.611Z,34.05
2022-12-17T08:56:23.294Z,29.45
2022-12-17T08:59:07.966Z,41.80
2022-12-17T09:01:54.038Z,40.25
2022-12-17T09:04:46.440Z,38.50
2022-12-17T09:07:34.693Z,49.93
2022-12-17T09:10:20.486Z,60.33
2022-12-17T09:13:06.461Z,63.33
2022-12-17T09:15:53.035Z,70.17
2022-12-17T09:18:42.329Z,68.72
2022-12-17T09:21:28.271Z,80.77
2022-12-17T09:24:14.619Z,127.12
2022-12-17T09:26:50.178Z,139.75
2022-12-17T09:29:36.638Z,97.22
2022-12-17T09:32:18.593Z,71.65
2022-12-17T09:35:04.923Z,77.27
2022-12-17T09:37:52.414Z,75.85
2022-12-17T09:40:42.217Z,83.12
2022-12-17T09:43:43.194Z,88.17
2022-12-17T09:47:18.710Z,96.45
2022-12-17T09:50:05.743Z,94.95
2022-12-17T09:52:54.699Z,109.55
2022-12-17T09:56:08.899Z,112.47
2022-12-17T09:58:58.255Z,107.60
2022-12-17T10:01:51.638Z,134.60
2022-12-17T10:04:52.512Z,144.35
2022-12-17T10:07:46.367Z,132.95
2022-12-17T10:10:48.765Z,132.90
2022-12-17T10:13:42.424Z,152.27
2022-12-17T10:16:54.645Z,174.47
2022-12-17T10:19:57.972Z,172.20
2022-12-17T10:22:46.319Z,176.95
2022-12-17T10:25:40.329Z,180.97
2022-12-17T10:28:34.915Z,192.00
2022-12-17T10:31:35.067Z,188.22
2022-12-17T10:34:36.265Z,172.25
2022-12-17T10:37:23.666Z,155.75
2022-12-17T10:40:22.443Z,141.95
2022-12-17T10:43:06.076Z,116.45
2022-12-17T10:45:55.175Z,90.28
2022-12-17T10:48:47.090Z,76.37
2022-12-17T10:52:01.791Z,74.47
2022-12-17T10:54:51.632Z,66.75
2022-12-17T10:57:59.937Z,87.72
2022-12-17T11:00:52.374Z,58.63
2022-12-17T11:03:53.039Z,40.83
2022-12-17T11:06:42.929Z,43.65
2022-12-17T11:09:49.171Z,34.78
2022-12-17T11:12:37.969Z,24.70
2022-12-17T11:15:38.687Z,28.17
2022-12-17T11:18:36.478Z,31.60
2022-12-17T11:21:44.911Z,25.80
2022-12-17T11:24:44.131Z,17.23
2022-12-17T11:27:35.626Z,11.15
2022-12-17T11:30:31.923Z,5.75
2022-12-17T11:33:35.785Z,7.00
2022-12-17T11:36:39.544Z,7.75
2022-12-17T11:46:02.986Z,9.70
2022-12-17T11:49:01.073Z,7.58
2022-12-17T11:51:57.415Z,10.43
2022-12-17T11:58:14.654Z,20.72
2022-12-17T12:01:09.108Z,10.63
2022-12-17T12:04:23.873Z,8.13
2022-12-17T12:24:12.917Z,13.22
2022-12-17T12:27:22.528Z,13.22
2022-12-17T12:30:19.518Z,5.17
2022-12-17T12:33:16.713Z,7.50
2022-12-17T12:36:12.060Z,7.35
2022-12-17T12:39:02.235Z,9.93
2022-12-17T12:42:30.244Z,8.28
2022-12-17T12:45:52.253Z,10.32
2022-12-17T12:48:56.547Z,9.65
2022-12-17T12:51:46.996Z,7.08
2022-12-17T12:55:07.028Z,4.62
2022-12-17T12:58:03.591Z,2.83
2022-12-17T13:01:00.527Z,4.53
2022-12-17T13:04:04.302Z,4.20
2022-12-17T13:06:50.542Z,5.15
2022-12-17T13:09:35.010Z,9.23
2022-12-17T13:12:17.497Z,8.83
2022-12-17T13:14:53.904Z,9.13
2022-12-17T13:17:35.419Z,7.03
2022-12-17T13:20:29.625Z,5.45
2022-12-17T13:23:15.728Z,7.47
2022-12-17T13:26:05.664Z,5.78
2022-12-17T13:28:34.070Z,11.90
2022-12-17T13:31:05.387Z,16.75
2022-12-17T13:33:42.103Z,8.83
2022-12-17T13:36:38.998Z,7.30
2022-12-17T13:41:38.208Z,15.63
2022-12-17T13:44:37.201Z,19.40
2022-12-17T13:47:12.012Z,9.88
2022-12-17T13:49:51.204Z,4.72
2022-12-17T13:52:20.417Z,4.83
2022-12-17T13:54:58.111Z,15.38
2022-12-17T13:57:28.108Z,14.25
2022-12-17T13:59:58.943Z,21.48
2022-12-17T14:02:34.409Z,46.13
2022-12-17T14:05:08.334Z,9.25
2022-12-17T14:07:39.282Z,8.50
2022-12-17T14:10:20.710Z,12.30
2022-12-17T14:12:49.550Z,10.50
2022-12-17T14:15:28.116Z,5.83
2022-12-17T14:17:58.342Z,6.17
2022-12-17T14:20:29.291Z,14.03
2022-12-17T14:23:05.498Z,13.88
2022-12-17T14:25:39.067Z,12.73
2022-12-17T14:28:23.763Z,10.40
2022-12-17T14:31:25.596Z,21.07
2022-12-17T14:33:30.800Z,8.78
2022-12-17T14:36:18.692Z,8.78
2022-12-17T14:38:59.914Z,12.47
2022-12-17T14:41:50.151Z,17.07
2022-12-17T14:44:22.635Z,13.75
2022-12-17T14:47:14.314Z,10.08
2022-12-17T14:50:07.707Z,10.78
2022-12-17T14:52:42.614Z,16.62
2022-12-17T14:55:35.156Z,12.35
2022-12-17T14:58:16.198Z,13.18
2022-12-17T15:01:01.259Z,12.23
2022-12-17T15:03:38.998Z,20.60
2022-12-17T15:06:12.158Z,15.38
2022-12-17T15:08:44.749Z,16.62
2022-12-17T15:11:19.663Z,17.90
2022-12-17T15:13:52.980Z,15.63
2022-12-17T15:16:18.641Z,13.93
2022-12-17T15:18:46.288Z,12.65
2022-12-17T15:21:15.804Z,12.15
2022-12-17T15:23:44.353Z,9.85
2022-12-17T15:26:14.436Z,8.45
2022-12-17T15:28:42.425Z,10.28
2022-12-17T15:31:12.150Z,12.07
2022-12-17T15:33:41.450Z,13.28
2022-12-17T15:36:13.650Z,9.23
2022-12-17T15:38:41.304Z,11.53
2022-12-17T15:41:29.860Z,8.40
2022-12-17T15:44:22.002Z,11.85
2022-12-17T15:46:50.758Z,10.85
2022-12-17T15:49:19.186Z,13.48
2022-12-17T15:51:50.612Z,11.15
2022-12-17T15:54:18.861Z,9.10
2022-12-17T15:57:00.134Z,10.25
2022-12-17T15:59:28.218Z,11.63
2022-12-17T16:01:56.343Z,11.97
2022-12-17T16:04:31.816Z,10.68
2022-12-17T16:07:06.130Z,9.55
2022-12-17T16:09:36.441Z,18.00
2022-12-17T16:12:05.761Z,10.72
2022-12-17T16:14:35.644Z,7.42
2022-12-17T16:17:03.550Z,7.30
2022-12-17T16:19:31.691Z,9.53
2022-12-17T16:24:56.371Z,9.90
2022-12-17T16:27:25.072Z,9.55
2022-12-17T16:29:52.930Z,10.25
2022-12-17T16:32:21.038Z,10.23
2022-12-17T16:34:48.936Z,12.28
2022-12-17T16:37:18.465Z,11.70
2022-12-17T16:39:46.282Z,10.80
2022-12-17T16:42:16.297Z,9.50
2022-12-17T16:44:44.478Z,11.75
2022-12-17T16:47:12.236Z,14.87
2022-12-17T16:49:39.972Z,13.95
2022-12-17T16:52:07.684Z,11.40
2022-12-17T16:54:36.156Z,13.80
2022-12-17T16:57:04.069Z,14.38
2022-12-17T16:59:31.753Z,12.75
2022-12-17T17:01:59.768Z,10.28
2022-12-17T17:04:27.650Z,14.93
2022-12-17T17:07:00.140Z,13.98
2022-12-17T17:09:29.955Z,13.45
2022-12-17T17:12:03.836Z,14.07
2022-12-17T17:14:32.398Z,12.90
2022-12-17T17:17:00.386Z,13.28
2022-12-17T17:19:31.017Z,13.45
2022-12-17T17:21:58.802Z,14.07
2022-12-17T17:24:26.355Z,19.50
2022-12-17T17:26:55.584Z,17.35
2022-12-17T17:29:23.956Z,13.93
2022-12-17T17:32:11.618Z,17.85
2022-12-17T17:34:24.721Z,19.40
2022-12-17T17:36:56.433Z,17.37
2022-12-17T17:39:28.490Z,17.95
2022-12-17T17:41:56.164Z,16.90
2022-12-17T17:44:24.086Z,16.02
2022-12-17T17:46:52.522Z,15.05
2022-12-17T17:49:22.149Z,14.83
2022-12-17T17:54:20.172Z,18.07
2022-12-17T17:56:47.819Z,15.32
2022-12-17T17:59:20.148Z,13.48
2022-12-17T18:01:50.403Z,15.55
2022-12-17T18:04:23.402Z,13.60
2022-12-17T18:07:23.610Z,15.80
2022-12-17T18:09:21.781Z,13.72
2022-12-17T18:11:49.729Z,13.45
2022-12-17T18:14:17.621Z,16.57
2022-12-17T18:16:48.068Z,13.75
2022-12-17T18:19:22.453Z,16.65
2022-12-17T18:21:50.216Z,12.80
2022-12-17T18:24:22.215Z,9.98
2022-12-17T18:26:52.629Z,16.35
2022-12-17T18:29:27.336Z,17.45
2022-12-17T18:31:55.460Z,21.17
2022-12-17T18:34:27.167Z,21.15
2022-12-17T18:36:55.411Z,18.23
2022-12-17T18:39:26.416Z,20.48
2022-12-17T18:42:12.347Z,13.88
2022-12-17T18:47:10.234Z,14.53
2022-12-17T18:49:39.021Z,12.40
2022-12-17T18:52:13.148Z,14.20
2022-12-17T18:54:38.142Z,15.88
2022-12-17T18:57:05.906Z,15.60
2022-12-17T18:59:34.545Z,15.30
2022-12-17T19:02:02.738Z,18.92
2022-12-17T19:04:32.391Z,18.35
2022-12-17T19:07:00.203Z,16.50
2022-12-17T19:09:36.668Z,18.27
2022-12-17T19:12:07.112Z,20.43
2022-12-17T19:14:36.221Z,26.33
2022-12-17T19:17:05.398Z,20.17
2022-12-17T19:19:33.382Z,17.35
2022-12-17T19:22:01.622Z,14.65
2022-12-17T19:24:29.399Z,16.97
2022-12-17T19:26:57.247Z,16.48
2022-12-17T19:29:27.640Z,16.10
2022-12-17T19:31:55.199Z,15.90
2022-12-17T19:34:25.693Z,15.43
2022-12-17T19:36:53.423Z,13.72
2022-12-17T19:39:21.059Z,17.95
2022-12-17T19:41:49.806Z,13.38
2022-12-17T19:44:19.952Z,14.05
2022-12-17T19:46:48.093Z,15.90
2022-12-17T19:49:16.626Z,15.70
2022-12-17T19:51:45.210Z,15.50
2022-12-17T19:54:19.522Z,17.70
2022-12-17T19:56:47.150Z,16.10
2022-12-17T19:59:14.998Z,16.27
2022-12-17T20:01:45.906Z,16.23
2022-12-17T20:04:14.502Z,18.40
2022-12-17T20:06:43.481Z,21.30
2022-12-17T20:09:12.256Z,19.15
2022-12-17T20:11:40.672Z,30.37
2022-12-17T20:14:21.966Z,25.37
2022-12-17T20:16:53.503Z,22.93
2022-12-17T20:19:29.951Z,27.45
2022-12-17T20:22:01.415Z,17.95
2022-12-17T20:24:31.920Z,20.37
2022-12-17T20:26:59.842Z,20.32
2022-12-17T20:29:28.178Z,21.35
2022-12-17T20:31:56.192Z,21.60
2022-12-17T20:34:25.238Z,18.37
2022-12-17T20:36:54.080Z,21.07
2022-12-17T20:39:27.139Z,20.75
2022-12-17T20:41:53.094Z,21.05
2022-12-17T20:44:21.613Z,17.85
2022-12-17T20:46:49.998Z,19.10
2022-12-17T20:49:21.077Z,21.95
2022-12-17T20:51:49.684Z,20.55
2022-12-17T20:54:18.201Z,24.72
2022-12-17T20:56:46.987Z,21.97
2022-12-17T20:59:17.754Z,21.77
2022-12-17T21:01:51.518Z,18.50
2022-12-17T21:04:17.203Z,18.02
2022-12-17T21:06:47.488Z,23.18
2022-12-17T21:09:18.728Z,18.60
2022-12-17T21:11:46.963Z,23.40
2022-12-17T21:14:18.039Z,23.27
2022-12-17T21:16:47.812Z,18.90
2022-12-17T21:19:18.391Z,18.32
2022-12-17T21:21:47.683Z,25.75
2022-12-17T21:24:17.881Z,23.55
2022-12-17T21:26:47.755Z,20.75
2022-12-17T21:29:18.173Z,20.75
2022-12-17T21:31:51.461Z,19.48
2022-12-17T21:34:24.583Z,19.65
2022-12-17T21:36:56.445Z,20.75
2022-12-17T21:39:24.714Z,20.50
2022-12-17T21:42:11.453Z,23.75
2022-12-17T21:44:39.887Z,24.80
2022-12-17T21:47:07.978Z,23.27
2022-12-17T21:49:36.298Z,22.05
2022-12-17T21:52:05.060Z,21.77
2022-12-17T21:54:37.072Z,28.38
2022-12-17T21:57:05.548Z,25.65
2022-12-17T21:59:33.193Z,24.47
2022-12-17T22:02:01.372Z,24.52
2022-12-17T22:04:29.702Z,20.62
2022-12-17T22:07:05.184Z,19.92
2022-12-17T22:09:45.113Z,20.90
2022-12-17T22:12:19.548Z,23.83
2022-12-17T22:14:48.281Z,21.07
2022-12-17T22:17:16.834Z,21.02
2022-12-17T22:19:45.023Z,22.00
2022-12-17T22:22:13.116Z,20.82
2022-12-17T22:24:44.129Z,17.32
2022-12-17T22:27:14.702Z,22.25
2022-12-17T22:29:56.614Z,22.27
2022-12-17T22:32:42.628Z,21.62
2022-12-17T22:36:13.070Z,23.07
2022-12-17T22:42:29.321Z,22.87
2022-12-17T22:44:29.590Z,23.55
2022-12-17T22:44:44.521Z,19.05
2022-12-17T22:45:31.925Z,19.12
2022-12-17T22:48:00.197Z,25.55
2022-12-17T22:50:36.769Z,26.07
2022-12-17T22:53:01.744Z,23.83
2022-12-17T22:55:30.348Z,22.95
2022-12-17T22:57:59.017Z,22.73
2022-12-17T23:00:33.998Z,22.55
2022-12-17T23:03:02.160Z,24.40
2022-12-17T23:05:31.883Z,23.70
2022-12-17T23:08:00.199Z,24.12
2022-12-17T23:10:28.340Z,22.32
2022-12-17T23:12:56.239Z,21.82
2022-12-17T23:15:32.326Z,25.20
2022-12-17T23:18:02.725Z,23.98
2022-12-17T23:20:33.295Z,21.62
2022-12-17T23:23:01.760Z,22.27
2022-12-17T23:25:30.612Z,29.15
2022-12-17T23:27:58.684Z,27.45
2022-12-17T23:30:26.482Z,23.67
2022-12-17T23:32:54.241Z,23.18
2022-12-17T23:35:21.883Z,24.95
2022-12-17T23:37:49.670Z,23.22
2022-12-17T23:40:17.510Z,25.40
2022-12-17T23:42:45.122Z,24.57
2022-12-17T23:45:13.396Z,21.02
2022-12-17T23:47:41.313Z,23.27
2022-12-17T23:50:11.047Z,23.90
2022-12-17T23:52:39.150Z,22.77
2022-12-17T23:55:07.626Z,24.10
2022-12-17T23:57:35.192Z,23.07
